Raleigh, NC

6:54 PM EDT on August 04, 2015 (GMT -0400)
North Raleigh (Falls Lake) | | Change Station
CLOSE
Current Station
Personal Weather Station
Location: Raleigh, NC
Elevation: 300 ft
Nearby Weather Stations

Elev 300 ft 35.93 °N, 78.61 °W | Updated 3 minutes ago

Partly Cloudy
Partly Cloudy
88.0 °F
Feels Like 96 °F
N
0.0
Wind Variable Wind from South
Gusts 2.0 mph

Today
High -- | Low -- °F
--% Chance of Precip.
Yesterday
High -- | Low -- °F
Precip. -- in
6:24 AM 8:16 PM
Waning Gibbous, 73% visible
Pressure 29.91 in
Visibility 10.0 miles
Clouds Scattered Clouds 6000 ft
Scattered Clouds 11000 ft
Scattered Clouds 25000 ft
Heat Index 96 °F
Dew Point 73 °F
Humidity 61%
Rainfall 0.00 in
Snow Depth Not available.
UV 1 out of 12
Pollen 4.60 out of 12
Air Quality Not available.
Flu Activity Not available.
METAR KRDU 042251Z VRB03KT 10SM SCT060 SCT110 SCT250 32/22 A2992 RMK AO2 SLP126 T03220217 $

More Conditions Fewer Conditions

Pressure 29.91 in
Visibility 10.0 miles
Clouds Scattered Clouds 6000 ft
Scattered Clouds 11000 ft
Scattered Clouds 25000 ft
Heat Index 96 °F
Dew Point 73 °F
Humidity 61%
Rainfall 0.00 in
Snow Depth Not available.
UV 1 out of 12
Pollen 4.60 out of 12
Air Quality Not available.
Flu Activity Not available.
METAR KRDU 042251Z VRB03KT 10SM SCT060 SCT110 SCT250 32/22 A2992 RMK AO2 SLP126 T03220217 $

More Conditions Fewer Conditions

10-Day Weather Forecast

×

Almanac

Astronomy

Aug. 04, 2015 Rise Set
Actual Time
Civil Twilight
Nautical Twilight
Astronomical Twilight
Moon
Length of Visible Light
Length of Day
Tomorrow will be .
, % of the Moon is Illuminated

Today's Extremes

State Highs State Lows

Community

WunderPhotos

Upload Photos

1,844,011 photos uploaded!

WunderBlogs® & News

Nearby

Air Quality

  Air Quality AQ Index Pollutant
Not available.

Snow Depth

Station Depth Elevation

Earthquake Activity

City Distance Mag. Time & Date
Minimum magnitude displayed is 2.5.

Coastal Water Temperatures

Place Temperature

Stations

Nearby Weather Stations

Station Location Temp. Windchill Dew Point Humidity Wind Precip. Elev Updated Type